sensor_id;sensor_type;location;lat;lon;timestamp;P1;durP1;ratioP1;P2;durP2;ratioP2
8656;SDS011;4366;50.764;7.184;2024-03-02T00:01:19;2.40;;;2.30;;
8656;SDS011;4366;50.764;7.184;2024-03-02T00:06:21;2.47;;;2.37;;
8656;SDS011;4366;50.764;7.184;2024-03-02T00:11:23;2.10;;;2.00;;
8656;SDS011;4366;50.764;7.184;2024-03-02T00:16:29;1.87;;;1.80;;
8656;SDS011;4366;50.764;7.184;2024-03-02T00:21:32;2.23;;;2.13;;
8656;SDS011;4366;50.764;7.184;2024-03-02T00:26:34;2.00;;;1.90;;
8656;SDS011;4366;50.764;7.184;2024-03-02T00:31:36;2.20;;;2.10;;
8656;SDS011;4366;50.764;7.184;2024-03-02T00:36:41;1.80;;;1.70;;
8656;SDS011;4366;50.764;7.184;2024-03-02T00:41:43;2.10;;;2.00;;
8656;SDS011;4366;50.764;7.184;2024-03-02T00:46:44;1.63;;;1.63;;
8656;SDS011;4366;50.764;7.184;2024-03-02T00:51:47;2.17;;;1.70;;
8656;SDS011;4366;50.764;7.184;2024-03-02T00:56:53;2.03;;;1.93;;
8656;SDS011;4366;50.764;7.184;2024-03-02T01:01:57;1.60;;;1.60;;
8656;SDS011;4366;50.764;7.184;2024-03-02T01:06:59;1.90;;;1.80;;
8656;SDS011;4366;50.764;7.184;2024-03-02T01:12:01;1.70;;;1.60;;
8656;SDS011;4366;50.764;7.184;2024-03-02T01:17:02;1.80;;;1.70;;
8656;SDS011;4366;50.764;7.184;2024-03-02T01:22:05;2.13;;;2.00;;
8656;SDS011;4366;50.764;7.184;2024-03-02T01:27:09;1.70;;;1.70;;
8656;SDS011;4366;50.764;7.184;2024-03-02T01:32:11;1.90;;;1.80;;
8656;SDS011;4366;50.764;7.184;2024-03-02T01:37:13;1.83;;;1.73;;
8656;SDS011;4366;50.764;7.184;2024-03-02T01:42:15;1.90;;;1.80;;
8656;SDS011;4366;50.764;7.184;2024-03-02T01:47:17;2.10;;;2.00;;
8656;SDS011;4366;50.764;7.184;2024-03-02T01:52:19;1.60;;;1.60;;
8656;SDS011;4366;50.764;7.184;2024-03-02T01:57:21;1.83;;;1.80;;
8656;SDS011;4366;50.764;7.184;2024-03-02T02:02:24;1.97;;;1.87;;
8656;SDS011;4366;50.764;7.184;2024-03-02T02:07:26;2.10;;;2.00;;
8656;SDS011;4366;50.764;7.184;2024-03-02T02:12:28;1.53;;;1.53;;
8656;SDS011;4366;50.764;7.184;2024-03-02T02:17:30;1.73;;;1.63;;
8656;SDS011;4366;50.764;7.184;2024-03-02T02:22:32;1.57;;;1.57;;
8656;SDS011;4366;50.764;7.184;2024-03-02T02:27:34;1.90;;;1.80;;
8656;SDS011;4366;50.764;7.184;2024-03-02T02:32:37;1.97;;;1.87;;
8656;SDS011;4366;50.764;7.184;2024-03-02T02:37:39;1.80;;;1.70;;
8656;SDS011;4366;50.764;7.184;2024-03-02T02:42:40;1.90;;;1.80;;
8656;SDS011;4366;50.764;7.184;2024-03-02T02:47:43;1.80;;;1.70;;
8656;SDS011;4366;50.764;7.184;2024-03-02T02:52:45;2.03;;;1.83;;
8656;SDS011;4366;50.764;7.184;2024-03-02T02:57:48;1.70;;;1.60;;
8656;SDS011;4366;50.764;7.184;2024-03-02T03:02:49;2.00;;;1.90;;
8656;SDS011;4366;50.764;7.184;2024-03-02T03:07:52;1.93;;;1.83;;
8656;SDS011;4366;50.764;7.184;2024-03-02T03:12:54;1.97;;;1.80;;
8656;SDS011;4366;50.764;7.184;2024-03-02T03:17:58;1.87;;;1.87;;
8656;SDS011;4366;50.764;7.184;2024-03-02T03:23:00;1.80;;;1.70;;
8656;SDS011;4366;50.764;7.184;2024-03-02T03:28:03;1.63;;;1.53;;
8656;SDS011;4366;50.764;7.184;2024-03-02T03:33:06;1.90;;;1.80;;
8656;SDS011;4366;50.764;7.184;2024-03-02T03:38:08;2.00;;;1.90;;
8656;SDS011;4366;50.764;7.184;2024-03-02T03:43:10;1.60;;;1.60;;
8656;SDS011;4366;50.764;7.184;2024-03-02T03:48:12;1.77;;;1.67;;
8656;SDS011;4366;50.764;7.184;2024-03-02T03:53:14;1.80;;;1.80;;
8656;SDS011;4366;50.764;7.184;2024-03-02T03:58:16;2.00;;;1.90;;
8656;SDS011;4366;50.764;7.184;2024-03-02T04:03:22;1.90;;;1.80;;
8656;SDS011;4366;50.764;7.184;2024-03-02T04:08:24;1.97;;;1.87;;
8656;SDS011;4366;50.764;7.184;2024-03-02T04:13:26;2.43;;;2.07;;
8656;SDS011;4366;50.764;7.184;2024-03-02T04:18:28;2.17;;;2.07;;
8656;SDS011;4366;50.764;7.184;2024-03-02T04:23:29;1.97;;;1.87;;
8656;SDS011;4366;50.764;7.184;2024-03-02T04:28:31;1.90;;;1.80;;
8656;SDS011;4366;50.764;7.184;2024-03-02T04:33:34;2.23;;;2.00;;
8656;SDS011;4366;50.764;7.184;2024-03-02T04:38:37;2.10;;;2.00;;
8656;SDS011;4366;50.764;7.184;2024-03-02T04:43:39;2.13;;;2.03;;
8656;SDS011;4366;50.764;7.184;2024-03-02T04:48:41;2.10;;;2.00;;
8656;SDS011;4366;50.764;7.184;2024-03-02T04:53:44;2.03;;;1.90;;
8656;SDS011;4366;50.764;7.184;2024-03-02T04:58:45;2.60;;;2.40;;
8656;SDS011;4366;50.764;7.184;2024-03-02T05:03:47;2.23;;;2.13;;
8656;SDS011;4366;50.764;7.184;2024-03-02T05:08:49;2.37;;;2.17;;
8656;SDS011;4366;50.764;7.184;2024-03-02T05:13:53;2.47;;;2.30;;
8656;SDS011;4366;50.764;7.184;2024-03-02T05:18:55;2.30;;;2.20;;
8656;SDS011;4366;50.764;7.184;2024-03-02T05:23:56;2.40;;;2.20;;
8656;SDS011;4366;50.764;7.184;2024-03-02T05:28:58;2.20;;;2.10;;
8656;SDS011;4366;50.764;7.184;2024-03-02T05:34:00;2.90;;;2.70;;
8656;SDS011;4366;50.764;7.184;2024-03-02T05:39:02;2.57;;;2.40;;
8656;SDS011;4366;50.764;7.184;2024-03-02T05:44:06;2.93;;;2.73;;
8656;SDS011;4366;50.764;7.184;2024-03-02T05:49:08;3.07;;;2.87;;
8656;SDS011;4366;50.764;7.184;2024-03-02T05:54:11;3.40;;;2.93;;
8656;SDS011;4366;50.764;7.184;2024-03-02T05:59:12;2.70;;;2.50;;
8656;SDS011;4366;50.764;7.184;2024-03-02T06:04:14;2.80;;;2.60;;
8656;SDS011;4366;50.764;7.184;2024-03-02T06:09:16;3.10;;;2.90;;
8656;SDS011;4366;50.764;7.184;2024-03-02T06:14:18;2.90;;;2.60;;
8656;SDS011;4366;50.764;7.184;2024-03-02T06:19:19;2.87;;;2.67;;
8656;SDS011;4366;50.764;7.184;2024-03-02T06:24:21;3.33;;;3.03;;
8656;SDS011;4366;50.764;7.184;2024-03-02T06:29:23;3.30;;;3.10;;
8656;SDS011;4366;50.764;7.184;2024-03-02T06:34:25;3.30;;;3.00;;
8656;SDS011;4366;50.764;7.184;2024-03-02T06:39:27;4.13;;;3.60;;
8656;SDS011;4366;50.764;7.184;2024-03-02T06:44:28;4.00;;;3.70;;
8656;SDS011;4366;50.764;7.184;2024-03-02T06:49:30;4.23;;;3.83;;
8656;SDS011;4366;50.764;7.184;2024-03-02T06:54:32;3.80;;;3.50;;
8656;SDS011;4366;50.764;7.184;2024-03-02T06:59:36;4.03;;;3.67;;
8656;SDS011;4366;50.764;7.184;2024-03-02T07:04:37;4.23;;;3.83;;
8656;SDS011;4366;50.764;7.184;2024-03-02T07:09:39;3.27;;;3.07;;
8656;SDS011;4366;50.764;7.184;2024-03-02T07:14:41;4.20;;;3.80;;
8656;SDS011;4366;50.764;7.184;2024-03-02T07:20:06;4.40;;;4.00;;
8656;SDS011;4366;50.764;7.184;2024-03-02T07:25:08;3.30;;;3.10;;
8656;SDS011;4366;50.764;7.184;2024-03-02T07:30:30;3.63;;;3.27;;
8656;SDS011;4366;50.764;7.184;2024-03-02T07:35:34;3.60;;;3.30;;
8656;SDS011;4366;50.764;7.184;2024-03-02T07:40:36;3.43;;;3.13;;
8656;SDS011;4366;50.764;7.184;2024-03-02T07:45:37;3.00;;;2.70;;
8656;SDS011;4366;50.764;7.184;2024-03-02T07:50:39;2.70;;;2.50;;
8656;SDS011;4366;50.764;7.184;2024-03-02T07:55:41;2.60;;;2.40;;
8656;SDS011;4366;50.764;7.184;2024-03-02T08:00:43;2.77;;;2.57;;
8656;SDS011;4366;50.764;7.184;2024-03-02T08:05:45;2.57;;;2.37;;
8656;SDS011;4366;50.764;7.184;2024-03-02T08:10:47;2.63;;;2.47;;
8656;SDS011;4366;50.764;7.184;2024-03-02T08:15:50;2.73;;;2.40;;
8656;SDS011;4366;50.764;7.184;2024-03-02T08:20:52;3.80;;;2.10;;
8656;SDS011;4366;50.764;7.184;2024-03-02T08:25:54;2.73;;;2.53;;
8656;SDS011;4366;50.764;7.184;2024-03-02T08:30:55;2.23;;;2.00;;
8656;SDS011;4366;50.764;7.184;2024-03-02T08:35:58;1.83;;;1.73;;
8656;SDS011;4366;50.764;7.184;2024-03-02T08:41:00;2.23;;;2.07;;
8656;SDS011;4366;50.764;7.184;2024-03-02T08:46:02;2.40;;;2.13;;
8656;SDS011;4366;50.764;7.184;2024-03-02T08:51:04;1.90;;;1.80;;
8656;SDS011;4366;50.764;7.184;2024-03-02T08:56:09;2.03;;;1.90;;
8656;SDS011;4366;50.764;7.184;2024-03-02T09:01:10;1.90;;;1.80;;
8656;SDS011;4366;50.764;7.184;2024-03-02T09:06:13;3.33;;;1.90;;
8656;SDS011;4366;50.764;7.184;2024-03-02T09:11:15;1.80;;;1.70;;
8656;SDS011;4366;50.764;7.184;2024-03-02T09:16:17;2.10;;;1.90;;
8656;SDS011;4366;50.764;7.184;2024-03-02T09:21:19;1.87;;;1.77;;
8656;SDS011;4366;50.764;7.184;2024-03-02T09:26:21;2.27;;;2.10;;
8656;SDS011;4366;50.764;7.184;2024-03-02T09:31:23;2.43;;;1.60;;
8656;SDS011;4366;50.764;7.184;2024-03-02T09:36:25;1.97;;;1.87;;
8656;SDS011;4366;50.764;7.184;2024-03-02T09:41:27;2.53;;;1.80;;
8656;SDS011;4366;50.764;7.184;2024-03-02T09:46:29;1.77;;;1.53;;
8656;SDS011;4366;50.764;7.184;2024-03-02T09:51:31;1.70;;;1.30;;
8656;SDS011;4366;50.764;7.184;2024-03-02T09:56:33;1.53;;;1.10;;
8656;SDS011;4366;50.764;7.184;2024-03-02T10:01:35;1.23;;;1.13;;
8656;SDS011;4366;50.764;7.184;2024-03-02T10:06:36;1.53;;;1.10;;
8656;SDS011;4366;50.764;7.184;2024-03-02T10:11:38;1.40;;;1.20;;
8656;SDS011;4366;50.764;7.184;2024-03-02T10:16:41;2.10;;;1.40;;
8656;SDS011;4366;50.764;7.184;2024-03-02T10:21:47;1.87;;;1.43;;
8656;SDS011;4366;50.764;7.184;2024-03-02T10:26:51;1.70;;;1.60;;
8656;SDS011;4366;50.764;7.184;2024-03-02T10:31:53;1.67;;;1.57;;
8656;SDS011;4366;50.764;7.184;2024-03-02T10:36:55;1.50;;;1.40;;
8656;SDS011;4366;50.764;7.184;2024-03-02T10:41:57;1.60;;;1.50;;
8656;SDS011;4366;50.764;7.184;2024-03-02T10:47:00;1.60;;;1.50;;
8656;SDS011;4366;50.764;7.184;2024-03-02T10:52:04;1.23;;;1.23;;
8656;SDS011;4366;50.764;7.184;2024-03-02T10:57:06;1.30;;;1.20;;
8656;SDS011;4366;50.764;7.184;2024-03-02T11:02:11;2.77;;;1.40;;
8656;SDS011;4366;50.764;7.184;2024-03-02T11:07:13;1.73;;;1.63;;
8656;SDS011;4366;50.764;7.184;2024-03-02T11:12:16;1.50;;;1.40;;
8656;SDS011;4366;50.764;7.184;2024-03-02T11:17:21;1.93;;;1.73;;
8656;SDS011;4366;50.764;7.184;2024-03-02T11:22:23;1.60;;;1.50;;
8656;SDS011;4366;50.764;7.184;2024-03-02T11:32:54;1.60;;;1.50;;
8656;SDS011;4366;50.764;7.184;2024-03-02T11:37:57;1.70;;;1.60;;
8656;SDS011;4366;50.764;7.184;2024-03-02T11:43:01;1.50;;;1.40;;
8656;SDS011;4366;50.764;7.184;2024-03-02T11:48:04;1.40;;;1.40;;
8656;SDS011;4366;50.764;7.184;2024-03-02T11:53:08;1.00;;;1.00;;
8656;SDS011;4366;50.764;7.184;2024-03-02T11:58:11;0.93;;;0.93;;
8656;SDS011;4366;50.764;7.184;2024-03-02T12:03:13;1.30;;;1.23;;
8656;SDS011;4366;50.764;7.184;2024-03-02T12:08:16;1.90;;;1.80;;
8656;SDS011;4366;50.764;7.184;2024-03-02T12:13:18;1.37;;;1.30;;
8656;SDS011;4366;50.764;7.184;2024-03-02T12:18:20;1.43;;;1.40;;
8656;SDS011;4366;50.764;7.184;2024-03-02T12:23:24;1.30;;;1.20;;
8656;SDS011;4366;50.764;7.184;2024-03-02T12:28:26;1.60;;;1.50;;
8656;SDS011;4366;50.764;7.184;2024-03-02T12:33:27;1.70;;;1.60;;
8656;SDS011;4366;50.764;7.184;2024-03-02T12:38:31;1.37;;;1.27;;
8656;SDS011;4366;50.764;7.184;2024-03-02T12:43:32;2.13;;;1.40;;
8656;SDS011;4366;50.764;7.184;2024-03-02T12:48:34;1.63;;;1.50;;
8656;SDS011;4366;50.764;7.184;2024-03-02T12:53:37;1.63;;;1.53;;
8656;SDS011;4366;50.764;7.184;2024-03-02T12:58:39;1.40;;;1.30;;
8656;SDS011;4366;50.764;7.184;2024-03-02T13:03:42;1.20;;;1.20;;
8656;SDS011;4366;50.764;7.184;2024-03-02T13:08:45;1.67;;;1.47;;
8656;SDS011;4366;50.764;7.184;2024-03-02T13:13:47;1.13;;;1.03;;
8656;SDS011;4366;50.764;7.184;2024-03-02T13:18:49;0.80;;;0.80;;
8656;SDS011;4366;50.764;7.184;2024-03-02T13:23:51;1.00;;;1.00;;
8656;SDS011;4366;50.764;7.184;2024-03-02T13:28:53;0.60;;;0.60;;
8656;SDS011;4366;50.764;7.184;2024-03-02T13:33:55;0.83;;;0.73;;
8656;SDS011;4366;50.764;7.184;2024-03-02T13:38:57;1.10;;;1.10;;
8656;SDS011;4366;50.764;7.184;2024-03-02T13:43:59;1.27;;;1.17;;
8656;SDS011;4366;50.764;7.184;2024-03-02T13:49:02;1.30;;;1.20;;
8656;SDS011;4366;50.764;7.184;2024-03-02T13:54:04;1.10;;;1.10;;
8656;SDS011;4366;50.764;7.184;2024-03-02T13:59:07;1.30;;;1.20;;
8656;SDS011;4366;50.764;7.184;2024-03-02T14:04:09;1.17;;;1.17;;
8656;SDS011;4366;50.764;7.184;2024-03-02T14:09:11;0.97;;;0.87;;
8656;SDS011;4366;50.764;7.184;2024-03-02T14:14:13;1.13;;;1.13;;
8656;SDS011;4366;50.764;7.184;2024-03-02T14:19:14;1.37;;;1.00;;
8656;SDS011;4366;50.764;7.184;2024-03-02T14:24:16;0.90;;;0.90;;
8656;SDS011;4366;50.764;7.184;2024-03-02T14:29:19;0.87;;;0.87;;
8656;SDS011;4366;50.764;7.184;2024-03-02T14:34:21;1.10;;;1.00;;
8656;SDS011;4366;50.764;7.184;2024-03-02T14:39:23;0.90;;;0.90;;
8656;SDS011;4366;50.764;7.184;2024-03-02T14:44:25;1.10;;;1.10;;
8656;SDS011;4366;50.764;7.184;2024-03-02T14:49:27;1.30;;;1.20;;
8656;SDS011;4366;50.764;7.184;2024-03-02T14:54:29;1.20;;;1.10;;
8656;SDS011;4366;50.764;7.184;2024-03-02T14:59:31;0.90;;;0.90;;
8656;SDS011;4366;50.764;7.184;2024-03-02T15:04:33;1.00;;;1.00;;
8656;SDS011;4366;50.764;7.184;2024-03-02T15:09:35;1.07;;;1.07;;
8656;SDS011;4366;50.764;7.184;2024-03-02T15:14:38;0.87;;;0.87;;
8656;SDS011;4366;50.764;7.184;2024-03-02T15:19:47;0.80;;;0.80;;
8656;SDS011;4366;50.764;7.184;2024-03-02T15:24:49;0.90;;;0.90;;
8656;SDS011;4366;50.764;7.184;2024-03-02T15:29:52;0.70;;;0.70;;
8656;SDS011;4366;50.764;7.184;2024-03-02T15:34:56;0.83;;;0.83;;
8656;SDS011;4366;50.764;7.184;2024-03-02T15:39:59;2.13;;;0.93;;
8656;SDS011;4366;50.764;7.184;2024-03-02T15:45:10;1.40;;;0.80;;
8656;SDS011;4366;50.764;7.184;2024-03-02T15:50:12;1.07;;;0.80;;
8656;SDS011;4366;50.764;7.184;2024-03-02T15:55:16;1.00;;;1.00;;
8656;SDS011;4366;50.764;7.184;2024-03-02T16:00:18;0.70;;;0.70;;
8656;SDS011;4366;50.764;7.184;2024-03-02T16:05:19;0.90;;;0.90;;
8656;SDS011;4366;50.764;7.184;2024-03-02T16:10:22;1.00;;;1.00;;
8656;SDS011;4366;50.764;7.184;2024-03-02T16:15:24;0.87;;;0.87;;
8656;SDS011;4366;50.764;7.184;2024-03-02T16:20:26;0.90;;;0.90;;
8656;SDS011;4366;50.764;7.184;2024-03-02T16:25:27;0.80;;;0.80;;
8656;SDS011;4366;50.764;7.184;2024-03-02T16:30:30;0.90;;;0.90;;
8656;SDS011;4366;50.764;7.184;2024-03-02T16:35:32;1.60;;;1.13;;
8656;SDS011;4366;50.764;7.184;2024-03-02T16:40:33;1.10;;;1.10;;
8656;SDS011;4366;50.764;7.184;2024-03-02T16:45:36;1.07;;;1.00;;
8656;SDS011;4366;50.764;7.184;2024-03-02T16:50:38;0.83;;;0.83;;
8656;SDS011;4366;50.764;7.184;2024-03-02T16:55:39;1.10;;;1.10;;
8656;SDS011;4366;50.764;7.184;2024-03-02T17:00:41;1.17;;;0.97;;
8656;SDS011;4366;50.764;7.184;2024-03-02T17:05:43;1.13;;;1.07;;
8656;SDS011;4366;50.764;7.184;2024-03-02T17:10:45;1.00;;;1.00;;
8656;SDS011;4366;50.764;7.184;2024-03-02T17:15:47;1.40;;;1.30;;
8656;SDS011;4366;50.764;7.184;2024-03-02T17:20:49;1.30;;;1.20;;
8656;SDS011;4366;50.764;7.184;2024-03-02T17:25:51;1.20;;;1.10;;
8656;SDS011;4366;50.764;7.184;2024-03-02T17:30:53;1.20;;;1.20;;
8656;SDS011;4366;50.764;7.184;2024-03-02T17:35:55;1.30;;;1.20;;
8656;SDS011;4366;50.764;7.184;2024-03-02T17:40:58;1.27;;;1.17;;
8656;SDS011;4366;50.764;7.184;2024-03-02T17:46:01;1.33;;;1.23;;
8656;SDS011;4366;50.764;7.184;2024-03-02T17:51:07;1.40;;;1.40;;
8656;SDS011;4366;50.764;7.184;2024-03-02T17:56:11;1.30;;;1.20;;
8656;SDS011;4366;50.764;7.184;2024-03-02T18:01:13;1.40;;;1.30;;
8656;SDS011;4366;50.764;7.184;2024-03-02T18:06:16;2.03;;;1.80;;
8656;SDS011;4366;50.764;7.184;2024-03-02T18:11:18;1.70;;;1.60;;
8656;SDS011;4366;50.764;7.184;2024-03-02T18:16:22;1.60;;;1.50;;
8656;SDS011;4366;50.764;7.184;2024-03-02T18:21:24;1.70;;;1.60;;
8656;SDS011;4366;50.764;7.184;2024-03-02T18:26:27;1.70;;;1.60;;
8656;SDS011;4366;50.764;7.184;2024-03-02T18:31:30;2.47;;;1.57;;
8656;SDS011;4366;50.764;7.184;2024-03-02T18:36:32;2.07;;;1.97;;
8656;SDS011;4366;50.764;7.184;2024-03-02T18:41:34;2.07;;;1.97;;
8656;SDS011;4366;50.764;7.184;2024-03-02T18:46:35;1.90;;;1.80;;
8656;SDS011;4366;50.764;7.184;2024-03-02T18:51:37;2.50;;;1.93;;
8656;SDS011;4366;50.764;7.184;2024-03-02T18:56:40;2.17;;;1.97;;
8656;SDS011;4366;50.764;7.184;2024-03-02T19:01:43;2.43;;;2.23;;
8656;SDS011;4366;50.764;7.184;2024-03-02T19:06:45;2.33;;;2.13;;
8656;SDS011;4366;50.764;7.184;2024-03-02T19:11:47;2.27;;;2.07;;
8656;SDS011;4366;50.764;7.184;2024-03-02T19:16:48;2.43;;;2.20;;
8656;SDS011;4366;50.764;7.184;2024-03-02T19:21:50;2.20;;;2.07;;
8656;SDS011;4366;50.764;7.184;2024-03-02T19:27:08;1.93;;;1.83;;
8656;SDS011;4366;50.764;7.184;2024-03-02T19:32:09;2.47;;;2.27;;
8656;SDS011;4366;50.764;7.184;2024-03-02T19:37:15;2.00;;;1.90;;
8656;SDS011;4366;50.764;7.184;2024-03-02T19:42:17;2.27;;;2.07;;
8656;SDS011;4366;50.764;7.184;2024-03-02T19:47:20;2.93;;;2.10;;
8656;SDS011;4366;50.764;7.184;2024-03-02T19:52:22;2.57;;;2.37;;
8656;SDS011;4366;50.764;7.184;2024-03-02T19:57:25;2.43;;;2.23;;
8656;SDS011;4366;50.764;7.184;2024-03-02T20:02:27;2.33;;;2.20;;
8656;SDS011;4366;50.764;7.184;2024-03-02T20:07:28;2.50;;;2.30;;
8656;SDS011;4366;50.764;7.184;2024-03-02T20:12:30;2.73;;;2.17;;
8656;SDS011;4366;50.764;7.184;2024-03-02T20:17:32;2.17;;;2.07;;
8656;SDS011;4366;50.764;7.184;2024-03-02T20:22:34;2.03;;;1.93;;
8656;SDS011;4366;50.764;7.184;2024-03-02T20:27:36;2.67;;;2.47;;
8656;SDS011;4366;50.764;7.184;2024-03-02T20:32:38;2.30;;;2.10;;
8656;SDS011;4366;50.764;7.184;2024-03-02T20:37:40;2.13;;;2.03;;
8656;SDS011;4366;50.764;7.184;2024-03-02T20:42:42;2.93;;;2.57;;
8656;SDS011;4366;50.764;7.184;2024-03-02T20:47:43;2.43;;;2.30;;
8656;SDS011;4366;50.764;7.184;2024-03-02T20:52:46;2.20;;;2.10;;
8656;SDS011;4366;50.764;7.184;2024-03-02T20:57:48;2.30;;;2.10;;
8656;SDS011;4366;50.764;7.184;2024-03-02T21:02:50;2.40;;;2.20;;
8656;SDS011;4366;50.764;7.184;2024-03-02T21:07:52;2.60;;;2.40;;
8656;SDS011;4366;50.764;7.184;2024-03-02T21:12:54;3.50;;;2.60;;
8656;SDS011;4366;50.764;7.184;2024-03-02T21:17:56;2.27;;;2.13;;
8656;SDS011;4366;50.764;7.184;2024-03-02T21:22:58;3.40;;;2.50;;
8656;SDS011;4366;50.764;7.184;2024-03-02T21:28:00;2.90;;;2.70;;
8656;SDS011;4366;50.764;7.184;2024-03-02T21:33:02;2.60;;;2.40;;
8656;SDS011;4366;50.764;7.184;2024-03-02T21:38:07;2.80;;;2.60;;
8656;SDS011;4366;50.764;7.184;2024-03-02T21:43:09;2.80;;;2.60;;
8656;SDS011;4366;50.764;7.184;2024-03-02T21:48:11;2.80;;;2.60;;
8656;SDS011;4366;50.764;7.184;2024-03-02T21:53:12;2.90;;;2.70;;
8656;SDS011;4366;50.764;7.184;2024-03-02T21:58:14;3.33;;;2.83;;
8656;SDS011;4366;50.764;7.184;2024-03-02T22:03:16;3.40;;;3.00;;
8656;SDS011;4366;50.764;7.184;2024-03-02T22:08:19;3.97;;;3.10;;
8656;SDS011;4366;50.764;7.184;2024-03-02T22:13:21;3.27;;;3.03;;
8656;SDS011;4366;50.764;7.184;2024-03-02T22:18:23;3.20;;;2.90;;
8656;SDS011;4366;50.764;7.184;2024-03-02T22:23:24;3.47;;;3.17;;
8656;SDS011;4366;50.764;7.184;2024-03-02T22:28:26;3.73;;;3.37;;
8656;SDS011;4366;50.764;7.184;2024-03-02T22:33:28;2.83;;;2.63;;
8656;SDS011;4366;50.764;7.184;2024-03-02T22:38:30;3.13;;;2.90;;
8656;SDS011;4366;50.764;7.184;2024-03-02T22:43:31;3.77;;;3.07;;
8656;SDS011;4366;50.764;7.184;2024-03-02T22:48:33;4.17;;;3.10;;
8656;SDS011;4366;50.764;7.184;2024-03-02T22:53:35;3.70;;;3.40;;
8656;SDS011;4366;50.764;7.184;2024-03-02T22:58:38;5.20;;;3.63;;
8656;SDS011;4366;50.764;7.184;2024-03-02T23:03:39;3.67;;;3.23;;
8656;SDS011;4366;50.764;7.184;2024-03-02T23:08:41;4.20;;;3.20;;
8656;SDS011;4366;50.764;7.184;2024-03-02T23:13:44;3.70;;;3.40;;
8656;SDS011;4366;50.764;7.184;2024-03-02T23:18:46;4.67;;;4.03;;
8656;SDS011;4366;50.764;7.184;2024-03-02T23:23:48;5.03;;;4.00;;
8656;SDS011;4366;50.764;7.184;2024-03-02T23:28:54;4.67;;;3.93;;
8656;SDS011;4366;50.764;7.184;2024-03-02T23:33:56;5.80;;;4.00;;
8656;SDS011;4366;50.764;7.184;2024-03-02T23:39:00;4.30;;;3.50;;
8656;SDS011;4366;50.764;7.184;2024-03-02T23:44:05;4.40;;;3.87;;
8656;SDS011;4366;50.764;7.184;2024-03-02T23:49:09;5.17;;;4.33;;
8656;SDS011;4366;50.764;7.184;2024-03-02T23:54:11;4.47;;;4.03;;
8656;SDS011;4366;50.764;7.184;2024-03-02T23:59:12;4.77;;;4.23;;
